createdAt,value
2018-11-10T00:01:09.623Z,14.80
2018-11-10T00:03:41.687Z,14.90
2018-11-10T00:06:13.522Z,12.50
2018-11-10T00:08:44.279Z,13.63
2018-11-10T00:11:14.714Z,12.17
2018-11-10T00:13:51.711Z,12.87
2018-11-10T00:16:22.157Z,11.80
2018-11-10T00:18:52.739Z,11.27
2018-11-10T00:21:23.587Z,12.33
2018-11-10T00:23:53.823Z,12.00
2018-11-10T00:26:25.798Z,11.20
2018-11-10T00:28:55.825Z,10.80
2018-11-10T00:31:25.824Z,13.27
2018-11-10T00:33:55.991Z,10.93
2018-11-10T00:36:26.831Z,12.17
2018-11-10T00:38:56.822Z,12.47
2018-11-10T00:41:27.858Z,10.20
2018-11-10T00:43:57.790Z,11.20
2018-11-10T00:46:28.915Z,11.87
2018-11-10T00:48:58.925Z,12.90
2018-11-10T00:51:29.934Z,10.40
2018-11-10T00:54:01.088Z,11.60
2018-11-10T00:56:30.870Z,10.83
2018-11-10T00:59:01.780Z,10.20
2018-11-10T01:01:37.854Z,11.50
2018-11-10T01:04:09.925Z,9.70
2018-11-10T01:06:41.719Z,10.03
2018-11-10T01:09:12.255Z,10.13
2018-11-10T01:11:42.538Z,9.17
2018-11-10T01:14:13.390Z,9.10
2018-11-10T01:16:43.762Z,8.70
2018-11-10T01:19:13.954Z,8.80
2018-11-10T01:21:44.934Z,8.80
2018-11-10T01:24:15.636Z,8.20
2018-11-10T01:26:44.988Z,8.67
2018-11-10T01:29:16.782Z,8.60
2018-11-10T01:31:47.449Z,7.00
2018-11-10T01:34:21.019Z,8.63
2018-11-10T01:36:52.162Z,8.97
2018-11-10T01:39:22.045Z,7.87
2018-11-10T01:41:53.034Z,8.00
2018-11-10T01:44:26.930Z,8.03
2018-11-10T01:46:57.466Z,7.90
2018-11-10T01:49:28.151Z,8.50
2018-11-10T01:51:59.383Z,8.30
2018-11-10T01:54:29.052Z,7.60
2018-11-10T01:57:00.156Z,9.83
2018-11-10T01:59:30.252Z,8.33
2018-11-10T02:02:01.183Z,7.50
2018-11-10T02:04:31.149Z,8.67
2018-11-10T02:07:02.319Z,7.60
2018-11-10T02:09:32.300Z,7.10
2018-11-10T02:12:04.414Z,7.77
2018-11-10T02:14:35.146Z,7.43
2018-11-10T02:17:07.247Z,7.47
2018-11-10T02:19:38.550Z,7.37
2018-11-10T02:22:08.339Z,8.50
2018-11-10T02:24:38.389Z,8.17
2018-11-10T02:27:14.456Z,9.00
2018-11-10T02:29:44.762Z,7.80
2018-11-10T02:32:16.361Z,8.27
2018-11-10T02:34:47.146Z,8.50
2018-11-10T02:37:17.321Z,8.13
2018-11-10T02:39:47.383Z,7.50
2018-11-10T02:42:18.206Z,7.97
2018-11-10T02:44:49.538Z,8.90
2018-11-10T02:47:20.290Z,8.30
2018-11-10T02:49:50.326Z,8.20
2018-11-10T02:52:21.314Z,8.40
2018-11-10T02:54:52.411Z,8.07
2018-11-10T02:57:23.322Z,7.67
2018-11-10T02:59:53.390Z,8.57
2018-11-10T03:02:24.453Z,8.20
2018-11-10T03:04:55.508Z,8.77
2018-11-10T03:07:25.503Z,9.50
2018-11-10T03:09:56.619Z,8.37
2018-11-10T03:12:26.615Z,9.60
2018-11-10T03:14:57.411Z,8.43
2018-11-10T03:17:27.478Z,9.57
2018-11-10T03:19:58.380Z,9.97
2018-11-10T03:22:28.917Z,9.87
2018-11-10T03:24:59.314Z,10.23
2018-11-10T03:27:32.585Z,9.83
2018-11-10T03:30:03.427Z,11.03
2018-11-10T03:32:34.698Z,10.60
2018-11-10T03:35:07.562Z,9.53
2018-11-10T03:37:38.326Z,11.07
2018-11-10T03:40:09.952Z,10.80
2018-11-10T03:42:41.734Z,12.47
2018-11-10T03:45:13.265Z,13.53
2018-11-10T03:47:49.594Z,11.93
2018-11-10T03:50:19.633Z,11.93
2018-11-10T03:52:50.603Z,11.03
2018-11-10T03:55:21.483Z,11.37
2018-11-10T03:57:52.102Z,10.30
2018-11-10T04:00:22.698Z,9.27
2018-11-10T04:02:53.559Z,10.30
2018-11-10T04:05:23.654Z,8.80
2018-11-10T04:07:54.729Z,9.90
2018-11-10T04:10:25.653Z,10.37
2018-11-10T04:12:55.803Z,11.40
2018-11-10T04:15:26.749Z,11.60
2018-11-10T04:17:57.754Z,11.10
2018-11-10T04:20:27.880Z,10.70
2018-11-10T04:22:58.932Z,10.93
2018-11-10T04:25:29.690Z,11.37
2018-11-10T04:27:59.910Z,9.57
2018-11-10T04:30:30.634Z,9.80
2018-11-10T04:33:03.770Z,8.27
2018-11-10T04:35:34.801Z,8.27
2018-11-10T04:38:05.990Z,8.23
2018-11-10T04:40:38.255Z,7.07
2018-11-10T04:43:09.873Z,6.37
2018-11-10T04:45:39.192Z,6.60
2018-11-10T04:48:10.813Z,7.43
2018-11-10T04:50:49.578Z,6.10
2018-11-10T04:53:22.659Z,6.93
2018-11-10T04:55:56.674Z,5.63
2018-11-10T04:58:27.922Z,6.90
2018-11-10T05:00:58.378Z,6.40
2018-11-10T05:03:28.874Z,6.00
2018-11-10T05:06:02.832Z,6.20
2018-11-10T05:08:32.887Z,5.80
2018-11-10T05:11:04.998Z,7.23
2018-11-10T05:13:35.100Z,6.37
2018-11-10T05:16:06.566Z,6.80
2018-11-10T05:18:35.927Z,7.10
2018-11-10T05:21:09.933Z,6.10
2018-11-10T05:23:39.327Z,6.53
2018-11-10T05:26:11.072Z,6.00
2018-11-10T05:28:42.615Z,8.30
2018-11-10T05:31:13.311Z,8.10
2018-11-10T05:33:45.210Z,9.13
2018-11-10T05:36:17.153Z,8.67
2018-11-10T05:38:47.626Z,8.10
2018-11-10T05:41:18.102Z,6.83
2018-11-10T05:43:48.098Z,7.33
2018-11-10T05:46:19.122Z,7.33
2018-11-10T05:48:49.491Z,7.03
2018-11-10T05:51:20.259Z,5.63
2018-11-10T05:53:50.540Z,7.07
2018-11-10T05:56:21.348Z,8.00
2018-11-10T05:58:51.274Z,7.10
2018-11-10T06:01:22.195Z,7.10
2018-11-10T06:03:52.857Z,6.13
2018-11-10T06:06:23.386Z,6.63
2018-11-10T06:08:53.994Z,6.80
2018-11-10T06:11:27.516Z,5.67
2018-11-10T06:13:58.123Z,5.97
2018-11-10T06:16:29.300Z,6.23
2018-11-10T06:18:59.550Z,5.47
2018-11-10T06:21:30.543Z,6.83
2018-11-10T06:24:01.358Z,6.67
2018-11-10T06:26:31.111Z,7.50
2018-11-10T06:29:02.382Z,6.53
2018-11-10T06:31:33.633Z,6.20
2018-11-10T06:34:03.761Z,5.70
2018-11-10T06:36:34.310Z,6.27
2018-11-10T06:39:10.003Z,6.90
2018-11-10T06:41:39.355Z,6.90
2018-11-10T06:44:15.212Z,6.30
2018-11-10T06:46:48.202Z,7.83
2018-11-10T06:49:19.391Z,7.50
2018-11-10T06:51:49.578Z,8.70
2018-11-10T06:54:21.111Z,8.37
2018-11-10T06:56:51.594Z,9.60
2018-11-10T06:59:22.034Z,8.73
2018-11-10T07:01:52.410Z,10.10
2018-11-10T07:04:23.170Z,9.10
2018-11-10T07:07:02.779Z,8.67
2018-11-10T07:09:33.577Z,9.90
2018-11-10T07:12:03.766Z,7.47
2018-11-10T07:14:34.607Z,7.00
2018-11-10T07:17:04.719Z,8.77
2018-11-10T07:19:35.487Z,8.27
2018-11-10T07:22:05.550Z,9.03
2018-11-10T07:24:36.652Z,9.20
2018-11-10T07:27:09.094Z,10.50
2018-11-10T07:29:38.722Z,9.50
2018-11-10T07:32:10.660Z,10.60
2018-11-10T07:34:42.752Z,9.47
2018-11-10T07:37:12.672Z,11.67
2018-11-10T07:39:42.636Z,10.43
2018-11-10T07:42:13.758Z,12.20
2018-11-10T07:44:45.738Z,12.20
2018-11-10T07:47:18.459Z,14.97
2018-11-10T07:49:51.449Z,14.60
2018-11-10T07:52:22.663Z,14.10
2018-11-10T07:54:53.994Z,15.40
2018-11-10T07:57:24.727Z,18.20
2018-11-10T07:59:54.686Z,19.83
2018-11-10T08:02:25.666Z,27.93
2018-11-10T08:04:55.627Z,30.20
2018-11-10T08:07:26.890Z,32.70
2018-11-10T08:09:57.603Z,34.67
2018-11-10T08:12:27.861Z,35.50
2018-11-10T08:14:58.650Z,35.90
2018-11-10T08:17:33.909Z,39.10
2018-11-10T08:20:05.218Z,40.30
2018-11-10T08:22:34.975Z,36.57
2018-11-10T08:25:07.733Z,35.60
2018-11-10T08:27:38.975Z,36.97
2018-11-10T08:30:11.902Z,34.47
2018-11-10T08:32:42.512Z,33.87
2018-11-10T08:35:14.730Z,31.90
2018-11-10T08:37:44.342Z,43.10
2018-11-10T08:40:16.077Z,56.13
2018-11-10T08:42:45.610Z,40.10
2018-11-10T08:45:16.535Z,31.53
2018-11-10T08:47:46.760Z,30.60
2018-11-10T08:50:17.598Z,30.57
2018-11-10T08:52:53.840Z,27.90
2018-11-10T08:55:26.807Z,29.60
2018-11-10T08:57:57.922Z,28.97
2018-11-10T09:00:28.059Z,31.63
2018-11-10T09:02:58.065Z,30.40
2018-11-10T09:05:29.035Z,29.10
2018-11-10T09:07:59.959Z,30.70
2018-11-10T09:10:30.754Z,28.47
2018-11-10T09:13:01.039Z,28.23
2018-11-10T09:15:31.020Z,31.93
2018-11-10T09:18:02.998Z,32.57
2018-11-10T09:20:35.162Z,29.37
2018-11-10T09:23:06.164Z,26.73
2018-11-10T09:25:36.059Z,30.53
2018-11-10T09:28:06.443Z,30.10
2018-11-10T09:30:37.254Z,28.30
2018-11-10T09:33:08.219Z,28.07
2018-11-10T09:35:38.087Z,28.23
2018-11-10T09:38:10.846Z,26.20
2018-11-10T09:41:01.091Z,29.43
2018-11-10T09:43:33.211Z,30.90
2018-11-10T09:46:04.804Z,27.20
2018-11-10T09:48:34.219Z,28.67
2018-11-10T09:51:04.562Z,35.97
2018-11-10T09:53:33.979Z,36.03
2018-11-10T09:56:11.310Z,32.10
2018-11-10T09:58:42.196Z,28.27
2018-11-10T10:01:11.839Z,25.20
2018-11-10T10:03:41.201Z,25.63
2018-11-10T10:06:13.456Z,23.77
2018-11-10T10:08:45.566Z,27.83
2018-11-10T10:11:16.408Z,25.97
2018-11-10T10:13:48.072Z,27.43
2018-11-10T10:16:18.183Z,23.53
2018-11-10T10:18:48.827Z,24.67
2018-11-10T10:21:19.206Z,23.17
2018-11-10T10:23:49.718Z,23.67
2018-11-10T10:26:20.317Z,25.17
2018-11-10T10:28:50.858Z,21.40
2018-11-10T10:31:21.274Z,22.77
2018-11-10T10:33:54.711Z,18.47
2018-11-10T10:36:25.323Z,21.30
2018-11-10T10:39:02.462Z,22.73
2018-11-10T10:41:35.619Z,19.17
2018-11-10T10:44:09.440Z,19.53
2018-11-10T10:46:38.934Z,18.93
2018-11-10T10:49:10.741Z,19.67
2018-11-10T10:51:43.419Z,18.83
2018-11-10T10:54:13.088Z,17.90
2018-11-10T10:56:45.351Z,20.53
2018-11-10T10:59:15.480Z,17.60
2018-11-10T11:01:52.236Z,17.67
2018-11-10T11:04:36.585Z,18.80
2018-11-10T11:07:07.606Z,17.60
2018-11-10T11:09:44.157Z,17.90
2018-11-10T11:15:13.758Z,16.60
2018-11-10T11:17:48.473Z,16.77
2018-11-10T11:20:21.666Z,16.57
2018-11-10T11:22:51.606Z,17.17
2018-11-10T11:25:22.668Z,16.93
2018-11-10T11:27:52.618Z,17.73
2018-11-10T11:30:23.716Z,16.00
2018-11-10T11:32:53.661Z,17.53
2018-11-10T11:35:23.642Z,16.27
2018-11-10T11:37:57.378Z,16.07
2018-11-10T11:40:28.624Z,17.10
2018-11-10T11:42:58.771Z,16.43
2018-11-10T11:45:28.685Z,16.10
2018-11-10T11:47:59.715Z,16.03
2018-11-10T11:50:29.622Z,15.03
2018-11-10T11:53:03.662Z,17.10
2018-11-10T11:55:35.712Z,17.40
2018-11-10T11:58:07.027Z,16.50
2018-11-10T12:00:37.917Z,16.70
2018-11-10T12:03:08.944Z,15.80
2018-11-10T12:05:42.667Z,16.30
2018-11-10T12:08:15.726Z,17.60
2018-11-10T12:10:48.495Z,15.40
2018-11-10T12:13:21.755Z,16.67
2018-11-10T12:15:56.169Z,16.57
2018-11-10T12:18:27.123Z,15.47
2018-11-10T12:20:57.638Z,15.53
2018-11-10T12:23:31.863Z,15.40
2018-11-10T12:26:02.023Z,14.57
2018-11-10T12:28:31.938Z,15.23
2018-11-10T12:31:06.142Z,15.20
2018-11-10T12:33:36.986Z,14.40
2018-11-10T12:36:07.939Z,14.10
2018-11-10T12:38:37.881Z,14.10
2018-11-10T12:41:07.995Z,16.30
2018-11-10T12:43:37.828Z,15.43
2018-11-10T12:46:08.003Z,14.03
2018-11-10T12:48:39.309Z,13.97
2018-11-10T12:51:09.606Z,13.07
2018-11-10T12:53:39.124Z,13.67
2018-11-10T12:56:09.655Z,14.30
2018-11-10T12:58:39.239Z,13.23
2018-11-10T13:01:08.990Z,15.50
2018-11-10T13:03:39.190Z,14.80
2018-11-10T13:06:09.018Z,14.67
2018-11-10T13:08:39.310Z,14.83
2018-11-10T13:11:11.466Z,15.67
2018-11-10T13:13:43.346Z,16.70
2018-11-10T13:16:14.122Z,17.43
2018-11-10T13:18:43.500Z,15.90
2018-11-10T13:21:15.993Z,17.27
2018-11-10T13:23:49.060Z,17.80
2018-11-10T13:26:19.118Z,17.90
2018-11-10T13:28:54.107Z,17.13
2018-11-10T13:31:24.403Z,16.70
2018-11-10T13:33:56.260Z,15.40
2018-11-10T13:36:26.794Z,17.80
2018-11-10T13:38:57.247Z,16.00
2018-11-10T13:41:27.955Z,30.43
2018-11-10T13:43:58.265Z,23.90
2018-11-10T13:46:33.922Z,27.30
2018-11-10T13:49:05.668Z,24.50
2018-11-10T13:51:36.499Z,23.20
2018-11-10T13:54:07.751Z,21.80
2018-11-10T13:56:37.315Z,16.73
2018-11-10T13:59:09.153Z,18.10
2018-11-10T14:01:39.085Z,17.10
2018-11-10T14:04:09.940Z,16.10
2018-11-10T14:06:39.600Z,16.53
2018-11-10T14:09:11.057Z,18.00
2018-11-10T14:11:42.518Z,21.23
2018-11-10T14:14:14.726Z,19.27
2018-11-10T14:16:45.472Z,17.30
2018-11-10T14:19:15.657Z,18.33
2018-11-10T14:21:45.473Z,16.40
2018-11-10T14:24:16.476Z,16.87
2018-11-10T14:26:45.873Z,19.23
2018-11-10T14:29:17.735Z,15.63
2018-11-10T14:31:49.602Z,19.13
2018-11-10T14:34:20.374Z,17.10
2018-11-10T14:36:50.971Z,12.80
2018-11-10T14:39:22.691Z,15.33
2018-11-10T14:41:52.530Z,15.90
2018-11-10T14:44:23.435Z,15.43
2018-11-10T14:46:56.286Z,15.43
2018-11-10T14:49:26.386Z,14.67
2018-11-10T14:52:00.423Z,19.40
2018-11-10T14:54:30.544Z,50.17
2018-11-10T14:57:01.598Z,34.60
2018-11-10T14:59:31.698Z,24.90
2018-11-10T15:02:03.768Z,17.10
2018-11-10T15:04:39.134Z,16.27
2018-11-10T15:07:09.534Z,13.20
2018-11-10T15:09:39.485Z,16.20
2018-11-10T15:12:10.777Z,15.43
2018-11-10T15:14:40.075Z,14.53
2018-11-10T15:17:11.760Z,15.90
2018-11-10T15:19:42.722Z,16.20
2018-11-10T15:22:13.656Z,14.53
2018-11-10T15:24:45.632Z,14.50
2018-11-10T15:27:16.686Z,15.50
2018-11-10T15:29:48.661Z,14.77
2018-11-10T15:32:20.211Z,26.60
2018-11-10T15:34:50.834Z,19.53
2018-11-10T15:37:21.519Z,13.10
2018-11-10T15:39:51.730Z,14.57
2018-11-10T15:42:22.715Z,14.23
2018-11-10T15:44:52.961Z,13.73
2018-11-10T15:47:23.646Z,13.83
2018-11-10T15:49:54.171Z,12.73
2018-11-10T15:52:23.578Z,12.70
2018-11-10T15:54:53.732Z,13.20
2018-11-10T15:57:25.626Z,12.40
2018-11-10T15:59:55.873Z,13.47
2018-11-10T16:02:25.263Z,12.57
2018-11-10T16:04:57.068Z,13.80
2018-11-10T16:07:26.439Z,15.83
2018-11-10T16:09:58.123Z,11.87
2018-11-10T16:12:28.007Z,12.43
2018-11-10T16:14:58.906Z,13.80
2018-11-10T16:17:28.854Z,14.60
2018-11-10T16:19:59.646Z,17.50
2018-11-10T16:22:29.847Z,21.03
2018-11-10T16:25:00.756Z,21.20
2018-11-10T16:27:30.883Z,16.33
2018-11-10T16:30:05.639Z,19.30
2018-11-10T16:32:36.075Z,15.30
2018-11-10T16:35:07.510Z,16.40
2018-11-10T16:37:39.278Z,14.33
2018-11-10T16:40:13.627Z,16.17
2018-11-10T16:42:44.478Z,18.57
2018-11-10T16:45:15.619Z,16.30
2018-11-10T16:47:46.067Z,18.37
2018-11-10T16:50:18.042Z,18.17
2018-11-10T16:52:55.506Z,15.20
2018-11-10T16:55:25.962Z,16.97
2018-11-10T16:57:59.070Z,13.83
2018-11-10T17:00:33.042Z,15.57
2018-11-10T17:03:06.271Z,14.30
2018-11-10T17:05:39.294Z,14.53
2018-11-10T17:08:11.106Z,14.97
2018-11-10T17:10:41.770Z,15.60
2018-11-10T17:13:12.090Z,14.50
2018-11-10T17:15:42.725Z,13.33
2018-11-10T17:18:13.048Z,16.47
2018-11-10T17:20:43.289Z,17.50
2018-11-10T17:23:19.956Z,13.33
2018-11-10T17:25:50.214Z,14.83
2018-11-10T17:28:21.021Z,15.50
2018-11-10T17:30:51.283Z,15.50
2018-11-10T17:33:22.398Z,15.00
2018-11-10T17:35:52.212Z,13.87
2018-11-10T17:38:22.236Z,13.93
2018-11-10T17:41:00.132Z,13.90
2018-11-10T17:43:38.299Z,14.27
2018-11-10T17:46:09.286Z,13.47
2018-11-10T17:48:40.275Z,13.93
2018-11-10T17:51:13.306Z,12.97
2018-11-10T17:53:43.418Z,13.13
2018-11-10T17:56:14.278Z,14.27
2018-11-10T17:58:46.450Z,14.03
2018-11-10T18:01:18.265Z,13.17
2018-11-10T18:03:53.823Z,11.80
2018-11-10T18:06:25.343Z,12.90
2018-11-10T18:08:55.688Z,13.83
2018-11-10T18:11:26.347Z,14.10
2018-11-10T18:13:56.391Z,14.90
2018-11-10T18:16:27.510Z,16.40
2018-11-10T18:18:58.716Z,15.83
2018-11-10T18:21:28.530Z,17.80
2018-11-10T18:23:59.604Z,16.57
2018-11-10T18:26:29.542Z,15.60
2018-11-10T18:29:00.692Z,13.33
2018-11-10T18:31:31.483Z,15.67
2018-11-10T18:34:02.466Z,14.00
2018-11-10T18:36:33.790Z,13.33
2018-11-10T18:39:05.270Z,15.50
2018-11-10T18:41:36.599Z,14.53
2018-11-10T18:44:09.712Z,14.10
2018-11-10T18:46:40.370Z,14.50
2018-11-10T18:49:14.375Z,12.07
2018-11-10T18:51:43.742Z,17.03
2018-11-10T18:54:15.020Z,15.73
2018-11-10T18:56:47.473Z,16.70
2018-11-10T18:59:18.570Z,15.43
2018-11-10T19:01:49.566Z,17.00
2018-11-10T19:04:19.576Z,17.60
2018-11-10T19:06:49.638Z,16.40
2018-11-10T19:09:21.302Z,17.67
2018-11-10T19:11:55.286Z,17.33
2018-11-10T19:14:28.491Z,18.17
2018-11-10T19:17:01.601Z,16.30
2018-11-10T19:19:32.815Z,16.80
2018-11-10T19:22:02.842Z,17.00
2018-11-10T19:24:34.778Z,17.83
2018-11-10T19:27:05.034Z,15.20
2018-11-10T19:29:34.829Z,13.80
2018-11-10T19:32:08.627Z,15.53
2018-11-10T19:34:38.739Z,16.30
2018-11-10T19:37:09.751Z,16.67
2018-11-10T19:39:42.948Z,16.57
2018-11-10T19:42:14.785Z,16.33
2018-11-10T19:44:45.453Z,15.67
2018-11-10T19:47:15.814Z,15.23
2018-11-10T19:49:47.170Z,15.27
2018-11-10T19:52:18.795Z,15.90
2018-11-10T19:54:48.510Z,16.50
2018-11-10T19:57:24.932Z,18.60
2018-11-10T19:59:54.930Z,19.23
2018-11-10T20:02:26.113Z,20.37
2018-11-10T20:04:56.033Z,17.40
2018-11-10T20:07:28.139Z,17.77
2018-11-10T20:10:00.175Z,20.23
2018-11-10T20:12:30.943Z,23.50
2018-11-10T20:15:01.036Z,22.97
2018-11-10T20:17:32.036Z,27.20
2018-11-10T20:20:02.047Z,26.70
2018-11-10T20:22:33.121Z,19.50
2018-11-10T20:25:02.884Z,22.63
2018-11-10T20:27:33.988Z,20.77
2018-11-10T20:30:06.860Z,20.60
2018-11-10T20:32:37.124Z,19.10
2018-11-10T20:41:08.369Z,19.23
2018-11-10T20:43:38.065Z,17.30
2018-11-10T20:46:09.243Z,16.33
2018-11-10T20:48:39.043Z,20.60
2018-11-10T20:51:12.240Z,22.67
2018-11-10T20:53:43.106Z,19.10
2018-11-10T20:56:13.300Z,19.00
2018-11-10T20:58:43.154Z,19.80
2018-11-10T21:01:16.870Z,19.37
2018-11-10T21:03:54.045Z,19.97
2018-11-10T21:06:24.313Z,18.70
2018-11-10T21:08:55.154Z,25.60
2018-11-10T21:11:25.251Z,29.03
2018-11-10T21:13:57.283Z,25.00
2018-11-10T21:16:29.384Z,23.53
2018-11-10T21:19:00.710Z,23.60
2018-11-10T21:21:30.666Z,23.40
2018-11-10T21:24:01.438Z,19.67
2018-11-10T21:26:33.163Z,22.00
2018-11-10T21:29:09.235Z,22.90
2018-11-10T21:31:38.516Z,23.30
2018-11-10T21:34:10.073Z,21.87
2018-11-10T21:36:39.366Z,25.73
2018-11-10T21:39:11.242Z,23.53
2018-11-10T21:41:40.947Z,23.30
2018-11-10T21:44:10.464Z,22.87
2018-11-10T21:46:39.978Z,22.10
2018-11-10T21:49:11.406Z,20.27
2018-11-10T21:51:40.726Z,23.70
2018-11-10T21:54:12.349Z,18.67
2018-11-10T21:56:43.339Z,19.00
2018-11-10T21:59:16.156Z,19.80
2018-11-10T22:01:47.694Z,19.10
2018-11-10T22:04:17.814Z,18.27
2018-11-10T22:06:48.334Z,17.53
2018-11-10T22:09:18.600Z,18.13
2018-11-10T22:11:49.845Z,18.33
2018-11-10T22:14:19.433Z,20.77
2018-11-10T22:16:51.374Z,17.50
2018-11-10T22:19:26.342Z,19.20
2018-11-10T22:22:03.284Z,20.10
2018-11-10T22:24:39.291Z,29.07
2018-11-10T22:27:16.357Z,31.90
2018-11-10T22:29:49.551Z,26.47
2018-11-10T22:32:20.439Z,26.40
2018-11-10T22:34:51.378Z,21.97
2018-11-10T22:37:21.603Z,18.40
2018-11-10T22:39:52.517Z,19.07
2018-11-10T22:42:23.471Z,17.13
2018-11-10T22:44:54.018Z,16.10
2018-11-10T22:47:24.642Z,17.90
2018-11-10T22:49:58.424Z,17.20
2018-11-10T22:52:28.654Z,17.57
2018-11-10T22:55:04.482Z,17.27
2018-11-10T22:57:40.179Z,15.40
2018-11-10T23:00:23.234Z,15.97
2018-11-10T23:02:56.077Z,16.20
2018-11-10T23:05:27.998Z,15.80
2018-11-10T23:07:58.331Z,15.57
2018-11-10T23:10:28.517Z,13.70
2018-11-10T23:12:58.645Z,13.97
2018-11-10T23:15:29.776Z,14.80
2018-11-10T23:18:02.714Z,13.53
2018-11-10T23:20:33.817Z,14.73
2018-11-10T23:23:04.490Z,13.80
2018-11-10T23:25:34.762Z,11.80
2018-11-10T23:28:05.119Z,13.73
2018-11-10T23:30:35.839Z,13.53
2018-11-10T23:33:06.125Z,12.73
2018-11-10T23:35:36.930Z,12.83
2018-11-10T23:38:09.828Z,14.57
2018-11-10T23:40:43.906Z,12.53
2018-11-10T23:43:14.065Z,12.43
2018-11-10T23:45:45.307Z,13.03
2018-11-10T23:48:16.800Z,13.63
2018-11-10T23:50:49.628Z,11.27
2018-11-10T23:53:19.151Z,11.70
2018-11-10T23:55:50.262Z,12.50
2018-11-10T23:58:20.980Z,13.17
